createdAt,value
2022-09-06T00:01:42.869Z,18.06
2022-09-06T00:04:14.528Z,17.86
2022-09-06T00:06:41.730Z,18.01
2022-09-06T00:09:08.122Z,17.98
2022-09-06T00:11:34.558Z,17.97
2022-09-06T00:14:01.124Z,17.87
2022-09-06T00:16:30.481Z,17.92
2022-09-06T00:18:57.310Z,17.91
2022-09-06T00:21:29.517Z,17.92
2022-09-06T00:23:56.531Z,17.87
2022-09-06T00:26:23.342Z,17.81
2022-09-06T00:28:49.890Z,17.92
2022-09-06T00:31:19.697Z,17.69
2022-09-06T00:33:46.306Z,17.90
2022-09-06T00:36:13.244Z,17.95
2022-09-06T00:38:41.155Z,17.93
2022-09-06T00:41:10.522Z,17.86
2022-09-06T00:43:37.525Z,17.92
2022-09-06T00:46:05.569Z,17.99
2022-09-06T00:48:32.506Z,17.95
2022-09-06T00:51:02.222Z,17.92
2022-09-06T00:53:29.683Z,18.00
2022-09-06T00:55:56.122Z,17.85
2022-09-06T00:58:23.610Z,17.86
2022-09-06T01:00:50.010Z,17.99
2022-09-06T01:03:16.553Z,17.99
2022-09-06T01:06:10.657Z,18.01
2022-09-06T01:09:13.953Z,18.04
2022-09-06T01:11:43.236Z,17.99
2022-09-06T01:14:37.527Z,18.00
2022-09-06T01:17:20.778Z,17.98
2022-09-06T01:20:20.467Z,18.03
2022-09-06T01:23:05.203Z,18.01
2022-09-06T01:26:10.911Z,17.91
2022-09-06T01:28:44.209Z,17.87
2022-09-06T01:31:25.644Z,17.96
2022-09-06T01:33:58.247Z,17.76
2022-09-06T01:36:29.115Z,17.92
2022-09-06T01:38:55.859Z,17.89
2022-09-06T01:41:22.319Z,17.87
2022-09-06T01:43:50.718Z,17.76
2022-09-06T01:46:53.124Z,17.95
2022-09-06T01:49:57.040Z,17.97
2022-09-06T01:52:40.610Z,17.93
2022-09-06T01:55:30.134Z,17.92
2022-09-06T01:58:26.990Z,17.92
2022-09-06T02:01:05.887Z,17.70
2022-09-06T02:03:34.929Z,17.87
2022-09-06T02:06:11.854Z,17.87
2022-09-06T02:08:47.178Z,17.83
2022-09-06T02:11:15.633Z,17.82
2022-09-06T02:13:56.842Z,17.71
2022-09-06T02:16:26.690Z,17.87
2022-09-06T02:19:06.759Z,17.90
2022-09-06T02:21:38.093Z,17.64
2022-09-06T02:24:11.932Z,17.89
2022-09-06T02:26:42.418Z,17.82
2022-09-06T02:29:09.449Z,17.79
2022-09-06T02:31:45.112Z,17.80
2022-09-06T02:34:15.763Z,17.86
2022-09-06T02:36:42.611Z,17.76
2022-09-06T02:39:10.047Z,17.70
2022-09-06T02:41:37.527Z,17.68
2022-09-06T02:44:03.948Z,17.80
2022-09-06T02:46:30.795Z,17.77
2022-09-06T02:48:57.867Z,17.74
2022-09-06T02:51:24.255Z,17.76
2022-09-06T02:53:50.671Z,17.72
2022-09-06T02:56:17.407Z,17.70
2022-09-06T02:58:43.894Z,17.61
2022-09-06T03:01:10.423Z,17.75
2022-09-06T03:03:37.011Z,17.73
2022-09-06T03:06:03.553Z,17.73
2022-09-06T03:08:33.468Z,17.64
2022-09-06T03:11:01.063Z,17.73
2022-09-06T03:13:28.039Z,17.76
2022-09-06T03:15:57.214Z,17.55
2022-09-06T03:18:25.158Z,17.66
2022-09-06T03:20:52.801Z,17.73
2022-09-06T03:23:20.548Z,17.57
2022-09-06T03:25:47.276Z,17.79
2022-09-06T03:28:13.725Z,17.80
2022-09-06T03:30:40.539Z,17.74
2022-09-06T03:33:07.282Z,17.76
2022-09-06T03:35:33.709Z,17.58
2022-09-06T03:38:00.171Z,17.72
2022-09-06T03:40:26.811Z,17.76
2022-09-06T03:42:53.239Z,17.54
2022-09-06T03:45:19.838Z,17.76
2022-09-06T03:47:46.402Z,17.62
2022-09-06T03:50:12.818Z,17.70
2022-09-06T03:52:39.357Z,17.53
2022-09-06T03:55:06.619Z,17.66
2022-09-06T03:57:33.097Z,17.76
2022-09-06T03:59:59.522Z,17.76
2022-09-06T04:02:25.972Z,17.64
2022-09-06T04:04:55.494Z,17.71
2022-09-06T04:07:22.974Z,17.77
2022-09-06T04:09:49.595Z,17.69
2022-09-06T04:12:16.192Z,17.64
2022-09-06T04:14:42.817Z,17.73
2022-09-06T04:17:09.215Z,17.68
2022-09-06T04:19:35.655Z,17.59
2022-09-06T04:22:02.318Z,17.58
2022-09-06T04:24:28.708Z,17.73
2022-09-06T04:26:55.175Z,17.76
2022-09-06T04:29:21.612Z,17.75
2022-09-06T04:31:48.104Z,17.75
2022-09-06T04:34:16.348Z,17.48
2022-09-06T04:36:47.720Z,17.69
2022-09-06T04:39:14.854Z,17.73
2022-09-06T04:41:42.196Z,17.61
2022-09-06T04:44:08.748Z,17.71
2022-09-06T04:46:35.150Z,17.70
2022-09-06T04:49:01.577Z,17.68
2022-09-06T04:51:28.074Z,17.65
2022-09-06T04:53:54.708Z,17.64
2022-09-06T04:56:23.377Z,17.47
2022-09-06T04:58:52.446Z,17.64
2022-09-06T05:01:19.205Z,17.56
2022-09-06T05:03:46.219Z,17.63
2022-09-06T05:06:19.171Z,17.56
2022-09-06T05:08:45.661Z,17.46
2022-09-06T05:11:12.431Z,17.55
2022-09-06T05:13:39.261Z,17.53
2022-09-06T05:16:07.479Z,17.62
2022-09-06T05:18:34.629Z,17.61
2022-09-06T05:21:01.208Z,17.60
2022-09-06T05:23:28.508Z,17.55
2022-09-06T05:25:55.135Z,17.43
2022-09-06T05:28:21.663Z,17.63
2022-09-06T05:30:48.161Z,17.48
2022-09-06T05:33:20.709Z,17.65
2022-09-06T05:35:48.644Z,17.73
2022-09-06T05:38:15.098Z,17.67
2022-09-06T05:40:41.491Z,17.85
2022-09-06T05:43:07.896Z,17.83
2022-09-06T05:45:34.394Z,17.88
2022-09-06T05:48:00.800Z,17.99
2022-09-06T05:50:27.251Z,18.05
2022-09-06T05:52:54.113Z,18.09
2022-09-06T05:55:20.590Z,18.14
2022-09-06T05:57:49.943Z,18.19
2022-09-06T06:00:16.480Z,18.12
2022-09-06T06:02:43.035Z,18.20
2022-09-06T06:05:09.458Z,18.37
2022-09-06T06:07:35.954Z,18.43
2022-09-06T06:10:02.472Z,18.46
2022-09-06T06:12:28.870Z,18.52
2022-09-06T06:14:55.355Z,18.50
2022-09-06T06:17:21.902Z,18.55
2022-09-06T06:19:48.562Z,18.63
2022-09-06T06:22:15.020Z,18.63
2022-09-06T06:24:41.389Z,18.68
2022-09-06T06:27:07.837Z,18.72
2022-09-06T06:29:34.270Z,18.76
2022-09-06T06:32:00.812Z,18.82
2022-09-06T06:34:27.400Z,18.74
2022-09-06T06:36:53.792Z,18.78
2022-09-06T06:39:20.342Z,18.71
2022-09-06T06:41:47.897Z,18.92
2022-09-06T06:44:14.392Z,18.84
2022-09-06T06:46:41.639Z,18.96
2022-09-06T06:49:08.131Z,18.96
2022-09-06T06:51:39.229Z,19.05
2022-09-06T06:54:06.289Z,18.98
2022-09-06T06:56:38.486Z,19.16
2022-09-06T06:59:06.998Z,19.20
2022-09-06T07:01:34.986Z,19.20
2022-09-06T07:04:01.666Z,19.27
2022-09-06T07:09:16.332Z,19.32
2022-09-06T07:11:42.779Z,19.33
2022-09-06T07:14:09.234Z,19.44
2022-09-06T07:16:35.828Z,19.48
2022-09-06T07:19:02.659Z,19.48
2022-09-06T07:26:37.545Z,19.53
2022-09-06T07:29:05.822Z,19.74
2022-09-06T07:34:20.615Z,19.84
2022-09-06T07:36:48.188Z,19.76
2022-09-06T07:39:14.611Z,19.88
2022-09-06T07:41:41.012Z,19.94
2022-09-06T07:44:07.410Z,19.97
2022-09-06T07:46:34.040Z,20.06
2022-09-06T07:49:00.504Z,20.13
2022-09-06T07:51:27.172Z,20.17
2022-09-06T07:54:13.311Z,20.19
2022-09-06T07:56:44.226Z,20.13
2022-09-06T07:59:10.728Z,20.35
2022-09-06T08:01:38.897Z,20.41
2022-09-06T08:04:06.827Z,20.33
2022-09-06T08:09:23.006Z,20.63
2022-09-06T08:11:51.028Z,20.52
2022-09-06T08:14:17.617Z,20.69
2022-09-06T08:16:44.187Z,20.74
2022-09-06T08:19:12.326Z,20.77
2022-09-06T08:21:38.820Z,20.80
2022-09-06T08:24:07.509Z,20.80
2022-09-06T08:26:35.898Z,20.96
2022-09-06T08:29:06.741Z,20.99
2022-09-06T08:31:35.351Z,21.01
2022-09-06T08:34:02.480Z,20.97
2022-09-06T08:36:30.591Z,21.07
2022-09-06T08:38:58.315Z,21.10
2022-09-06T08:41:30.183Z,21.18
2022-09-06T08:47:06.569Z,21.25
2022-09-06T08:49:38.189Z,21.25
2022-09-06T08:52:26.486Z,21.25
2022-09-06T08:55:05.631Z,21.22
2022-09-06T08:57:57.121Z,21.31
2022-09-06T09:00:23.644Z,20.97
2022-09-06T09:03:17.134Z,21.12
2022-09-06T09:05:48.882Z,21.38
2022-09-06T09:08:26.875Z,21.44
2022-09-06T09:11:03.948Z,21.44
2022-09-06T09:13:50.721Z,21.47
2022-09-06T09:16:17.971Z,21.29
2022-09-06T09:18:49.258Z,21.51
2022-09-06T09:21:19.913Z,21.52
2022-09-06T09:23:52.123Z,21.46
2022-09-06T09:26:19.958Z,21.56
2022-09-06T09:29:13.501Z,21.62
2022-09-06T09:31:41.090Z,21.56
2022-09-06T09:34:12.775Z,21.40
2022-09-06T09:36:39.737Z,21.52
2022-09-06T09:39:12.595Z,21.57
2022-09-06T09:41:42.961Z,21.55
2022-09-06T09:44:16.343Z,21.56
2022-09-06T09:46:42.834Z,21.57
2022-09-06T09:49:34.946Z,21.53
2022-09-06T09:52:11.906Z,21.65
2022-09-06T09:54:43.588Z,21.62
2022-09-06T09:57:19.622Z,21.54
2022-09-06T09:59:52.942Z,21.67
2022-09-06T10:02:27.362Z,21.69
2022-09-06T10:05:00.943Z,21.72
2022-09-06T10:07:28.061Z,21.71
2022-09-06T10:09:59.147Z,21.71
2022-09-06T10:12:32.836Z,21.74
2022-09-06T10:15:02.407Z,21.68
2022-09-06T10:17:35.292Z,21.67
2022-09-06T10:20:04.875Z,21.71
2022-09-06T10:22:35.270Z,21.74
2022-09-06T10:25:23.200Z,21.72
2022-09-06T10:28:20.541Z,21.78
2022-09-06T10:31:31.865Z,21.81
2022-09-06T10:34:26.241Z,21.79
2022-09-06T10:37:19.965Z,21.82
2022-09-06T10:40:02.582Z,21.72
2022-09-06T10:42:33.552Z,21.84
2022-09-06T10:45:29.129Z,21.88
2022-09-06T10:48:11.296Z,21.89
2022-09-06T10:50:58.736Z,21.85
2022-09-06T10:53:49.529Z,21.91
2022-09-06T10:56:49.566Z,21.93
2022-09-06T10:59:38.205Z,21.70
2022-09-06T11:02:44.970Z,21.96
2022-09-06T11:10:55.600Z,21.96
2022-09-06T11:13:28.216Z,22.05
2022-09-06T11:16:08.018Z,22.10
2022-09-06T11:18:39.832Z,22.15
2022-09-06T11:21:30.953Z,22.23
2022-09-06T11:24:04.093Z,22.29
2022-09-06T11:26:42.348Z,22.37
2022-09-06T11:29:24.033Z,22.39
2022-09-06T11:32:23.727Z,22.42
2022-09-06T11:34:55.990Z,22.33
2022-09-06T11:37:33.326Z,22.55
2022-09-06T11:40:29.398Z,22.67
2022-09-06T11:42:56.120Z,22.69
2022-09-06T11:45:47.671Z,22.78
2022-09-06T11:48:35.244Z,22.82
2022-09-06T11:51:10.677Z,22.83
2022-09-06T11:53:49.351Z,22.87
2022-09-06T11:56:47.740Z,22.97
2022-09-06T11:59:20.123Z,22.88
2022-09-06T12:01:55.787Z,22.89
2022-09-06T12:04:23.818Z,22.80
2022-09-06T12:07:12.307Z,22.86
2022-09-06T12:09:43.796Z,22.71
2022-09-06T12:12:16.257Z,22.55
2022-09-06T12:14:46.801Z,22.62
2022-09-06T12:17:13.154Z,22.57
2022-09-06T12:19:56.145Z,22.51
2022-09-06T12:22:35.950Z,22.47
2022-09-06T12:25:02.497Z,22.37
2022-09-06T12:27:35.042Z,22.12
2022-09-06T12:30:12.096Z,22.25
2022-09-06T12:32:44.484Z,22.18
2022-09-06T12:38:25.451Z,22.06
2022-09-06T12:40:56.412Z,21.99
2022-09-06T12:43:22.880Z,22.01
2022-09-06T12:45:51.489Z,22.02
2022-09-06T12:48:29.983Z,22.05
2022-09-06T12:51:09.335Z,21.94
2022-09-06T12:53:35.824Z,22.04
2022-09-06T12:56:08.535Z,22.10
2022-09-06T12:58:36.425Z,22.14
2022-09-06T13:01:19.815Z,22.21
2022-09-06T13:04:02.859Z,22.29
2022-09-06T13:06:33.617Z,22.19
2022-09-06T13:09:01.423Z,22.28
2022-09-06T13:11:38.472Z,22.21
2022-09-06T13:14:14.516Z,22.38
2022-09-06T13:16:47.383Z,22.39
2022-09-06T13:19:16.371Z,22.33
2022-09-06T13:21:46.138Z,22.27
2022-09-06T13:24:26.863Z,22.27
2022-09-06T13:26:54.527Z,22.44
2022-09-06T13:29:39.271Z,22.42
2022-09-06T13:32:14.561Z,22.39
2022-09-06T13:34:50.813Z,22.42
2022-09-06T13:37:17.506Z,22.57
2022-09-06T13:39:44.290Z,22.41
2022-09-06T13:42:26.030Z,22.51
2022-09-06T13:44:52.609Z,22.48
2022-09-06T13:47:19.056Z,22.62
2022-09-06T13:49:46.445Z,22.69
2022-09-06T13:52:14.225Z,22.71
2022-09-06T13:54:40.730Z,22.64
2022-09-06T13:57:07.154Z,22.60
2022-09-06T13:59:33.581Z,22.64
2022-09-06T14:02:09.791Z,22.54
2022-09-06T14:04:36.936Z,22.55
2022-09-06T14:07:04.076Z,22.42
2022-09-06T14:09:30.926Z,22.51
2022-09-06T14:11:57.887Z,22.49
2022-09-06T14:14:24.774Z,22.41
2022-09-06T14:16:51.223Z,22.29
2022-09-06T14:19:17.667Z,22.20
2022-09-06T14:21:44.371Z,22.44
2022-09-06T14:24:10.895Z,22.27
2022-09-06T14:26:38.648Z,22.39
2022-09-06T14:29:05.397Z,22.44
2022-09-06T14:31:34.984Z,22.39
2022-09-06T14:34:02.485Z,22.32
2022-09-06T14:36:31.519Z,22.38
2022-09-06T14:38:59.452Z,22.52
2022-09-06T14:41:26.374Z,22.49
2022-09-06T14:43:55.041Z,22.53
2022-09-06T14:46:23.535Z,22.45
2022-09-06T14:49:01.282Z,22.52
2022-09-06T14:51:29.146Z,22.55
2022-09-06T14:54:00.085Z,22.57
2022-09-06T14:56:27.058Z,22.58
2022-09-06T14:58:57.140Z,22.57
2022-09-06T15:01:25.349Z,22.78
2022-09-06T15:03:55.769Z,22.62
2022-09-06T15:06:23.690Z,22.45
2022-09-06T15:08:51.581Z,22.58
2022-09-06T15:11:36.337Z,22.65
2022-09-06T15:14:07.734Z,22.55
2022-09-06T15:16:35.155Z,22.59
2022-09-06T15:19:02.751Z,22.50
2022-09-06T15:21:30.359Z,22.67
2022-09-06T15:23:57.181Z,22.73
2022-09-06T15:26:23.617Z,22.65
2022-09-06T15:28:50.036Z,22.69
2022-09-06T15:31:17.427Z,22.73
2022-09-06T15:33:44.047Z,22.82
2022-09-06T15:36:11.323Z,22.86
2022-09-06T15:38:49.695Z,23.09
2022-09-06T15:41:24.810Z,23.20
2022-09-06T15:43:55.049Z,23.13
2022-09-06T15:46:41.458Z,23.44
2022-09-06T15:49:09.702Z,23.55
2022-09-06T15:51:38.142Z,23.59
2022-09-06T15:54:05.875Z,23.80
2022-09-06T15:56:32.788Z,24.06
2022-09-06T15:58:59.332Z,24.42
2022-09-06T16:01:26.639Z,24.75
2022-09-06T16:03:58.513Z,25.17
2022-09-06T16:06:27.956Z,25.57
2022-09-06T16:08:58.981Z,26.15
2022-09-06T16:11:27.143Z,26.17
2022-09-06T16:13:54.196Z,26.39
2022-09-06T16:16:22.715Z,26.64
2022-09-06T16:18:49.438Z,26.82
2022-09-06T16:21:19.176Z,26.98
2022-09-06T16:23:54.608Z,27.05
2022-09-06T16:26:23.396Z,27.05
2022-09-06T16:28:51.997Z,27.20
2022-09-06T16:31:20.021Z,27.20
2022-09-06T16:33:48.717Z,27.00
2022-09-06T16:36:15.584Z,27.12
2022-09-06T16:38:42.547Z,27.09
2022-09-06T16:41:12.565Z,27.08
2022-09-06T16:43:38.967Z,27.29
2022-09-06T16:46:07.020Z,26.89
2022-09-06T16:48:34.090Z,26.57
2022-09-06T16:51:10.022Z,26.61
2022-09-06T16:53:38.068Z,26.39
2022-09-06T16:56:05.163Z,26.29
2022-09-06T16:58:31.697Z,26.14
2022-09-06T17:00:58.257Z,25.96
2022-09-06T17:03:24.892Z,25.75
2022-09-06T17:05:52.727Z,25.57
2022-09-06T17:08:19.611Z,25.32
2022-09-06T17:10:46.726Z,25.06
2022-09-06T17:13:13.452Z,24.81
2022-09-06T17:15:58.547Z,24.50
2022-09-06T17:18:26.621Z,24.32
2022-09-06T17:21:07.512Z,24.11
2022-09-06T17:23:35.005Z,23.82
2022-09-06T17:26:02.374Z,23.59
2022-09-06T17:28:29.223Z,23.22
2022-09-06T17:31:00.549Z,23.16
2022-09-06T17:33:27.082Z,23.00
2022-09-06T17:35:53.560Z,22.82
2022-09-06T17:38:20.089Z,22.61
2022-09-06T17:40:57.131Z,22.60
2022-09-06T17:43:23.634Z,22.27
2022-09-06T17:45:50.157Z,22.12
2022-09-06T17:48:16.677Z,22.08
2022-09-06T17:50:44.219Z,22.01
2022-09-06T17:53:10.839Z,21.87
2022-09-06T17:55:41.724Z,21.68
2022-09-06T17:58:08.693Z,21.62
2022-09-06T18:00:39.140Z,21.39
2022-09-06T18:03:06.373Z,21.26
2022-09-06T18:05:39.849Z,21.19
2022-09-06T18:08:07.813Z,21.15
2022-09-06T18:10:38.677Z,21.05
2022-09-06T18:13:06.362Z,20.93
2022-09-06T18:15:39.228Z,20.87
2022-09-06T18:18:05.723Z,20.64
2022-09-06T18:20:32.583Z,20.64
2022-09-06T18:23:00.277Z,20.61
2022-09-06T18:25:28.419Z,20.51
2022-09-06T18:27:54.947Z,20.50
2022-09-06T18:30:21.451Z,20.45
2022-09-06T18:32:47.881Z,20.38
2022-09-06T18:35:14.535Z,20.30
2022-09-06T18:37:40.949Z,20.24
2022-09-06T18:40:08.056Z,20.21
2022-09-06T18:42:34.530Z,19.96
2022-09-06T18:45:01.188Z,20.06
2022-09-06T18:47:27.660Z,20.02
2022-09-06T18:49:54.070Z,19.90
2022-09-06T18:52:20.714Z,19.86
2022-09-06T18:54:48.935Z,19.72
2022-09-06T18:57:16.456Z,19.82
2022-09-06T18:59:43.124Z,19.68
2022-09-06T19:02:09.698Z,19.60
2022-09-06T19:04:36.323Z,19.66
2022-09-06T19:07:03.971Z,19.61
2022-09-06T19:09:30.492Z,19.57
2022-09-06T19:11:56.920Z,19.49
2022-09-06T19:14:23.430Z,19.45
2022-09-06T19:16:51.583Z,19.38
2022-09-06T19:19:18.111Z,19.14
2022-09-06T19:21:44.624Z,19.18
2022-09-06T19:24:12.446Z,19.20
2022-09-06T19:26:41.790Z,19.18
2022-09-06T19:29:15.720Z,19.14
2022-09-06T19:31:42.949Z,19.03
2022-09-06T19:34:09.500Z,18.95
2022-09-06T19:36:36.269Z,18.95
2022-09-06T19:39:06.724Z,18.95
2022-09-06T19:41:38.955Z,18.94
2022-09-06T19:44:08.451Z,18.85
2022-09-06T19:46:35.407Z,18.85
2022-09-06T19:49:02.387Z,18.70
2022-09-06T19:51:29.450Z,18.76
2022-09-06T19:53:57.708Z,18.69
2022-09-06T19:56:26.575Z,18.61
2022-09-06T19:58:55.519Z,18.59
2022-09-06T20:01:23.415Z,18.42
2022-09-06T20:03:50.177Z,18.47
2022-09-06T20:06:16.936Z,18.29
2022-09-06T20:08:43.438Z,18.38
2022-09-06T20:11:12.678Z,18.16
2022-09-06T20:13:39.706Z,18.33
2022-09-06T20:16:08.082Z,18.29
2022-09-06T20:18:35.410Z,18.08
2022-09-06T20:21:02.543Z,18.08
2022-09-06T20:23:30.226Z,18.13
2022-09-06T20:26:11.901Z,18.18
2022-09-06T20:28:38.333Z,17.87
2022-09-06T20:31:07.888Z,18.09
2022-09-06T20:33:35.623Z,18.02
2022-09-06T20:36:05.430Z,18.01
2022-09-06T20:38:33.819Z,17.95
2022-09-06T20:41:07.446Z,17.93
2022-09-06T20:43:36.672Z,17.86
2022-09-06T20:46:05.586Z,17.84
2022-09-06T20:48:33.407Z,17.79
2022-09-06T20:51:02.502Z,17.77
2022-09-06T20:53:31.514Z,17.75
2022-09-06T20:56:05.722Z,17.48
2022-09-06T20:58:33.287Z,17.60
2022-09-06T21:01:05.167Z,17.59
2022-09-06T21:03:31.652Z,17.65
2022-09-06T21:05:58.219Z,17.50
2022-09-06T21:08:26.128Z,17.41
2022-09-06T21:10:59.919Z,17.61
2022-09-06T21:13:28.391Z,17.46
2022-09-06T21:15:55.801Z,17.55
2022-09-06T21:18:23.429Z,17.46
2022-09-06T21:20:57.004Z,17.40
2022-09-06T21:23:24.724Z,17.51
2022-09-06T21:25:55.770Z,17.49
2022-09-06T21:28:23.229Z,17.46
2022-09-06T21:31:04.198Z,17.46
2022-09-06T21:33:32.402Z,17.43
2022-09-06T21:36:06.839Z,17.42
2022-09-06T21:38:34.363Z,17.35
2022-09-06T21:41:00.945Z,17.33
2022-09-06T21:43:27.511Z,17.26
2022-09-06T21:45:53.939Z,17.36
2022-09-06T21:48:20.490Z,17.35
2022-09-06T21:50:50.541Z,17.34
2022-09-06T21:53:18.122Z,17.34
2022-09-06T21:55:45.042Z,17.34
2022-09-06T21:58:13.168Z,17.11
2022-09-06T22:00:41.353Z,17.10
2022-09-06T22:03:09.096Z,17.17
2022-09-06T22:05:36.067Z,17.33
2022-09-06T22:08:02.799Z,17.12
2022-09-06T22:10:29.235Z,17.36
2022-09-06T22:12:55.650Z,17.36
2022-09-06T22:15:23.655Z,17.35
2022-09-06T22:17:50.157Z,17.39
2022-09-06T22:20:16.963Z,17.45
2022-09-06T22:22:46.008Z,17.46
2022-09-06T22:25:13.932Z,17.50
2022-09-06T22:27:41.343Z,17.51
2022-09-06T22:30:08.502Z,17.47
2022-09-06T22:32:34.913Z,17.48
2022-09-06T22:35:01.504Z,17.42
2022-09-06T22:37:27.928Z,17.38
2022-09-06T22:39:54.490Z,17.48
2022-09-06T22:42:21.022Z,17.46
2022-09-06T22:44:47.619Z,17.46
2022-09-06T22:47:14.085Z,17.43
2022-09-06T22:49:40.518Z,17.31
2022-09-06T22:52:06.977Z,17.13
2022-09-06T22:54:33.486Z,17.36
2022-09-06T22:57:00.299Z,17.32
2022-09-06T22:59:26.731Z,17.28
2022-09-06T23:01:53.156Z,17.27
2022-09-06T23:04:19.794Z,17.23
2022-09-06T23:06:46.458Z,17.17
2022-09-06T23:09:12.967Z,16.99
2022-09-06T23:11:39.427Z,17.17
2022-09-06T23:14:06.004Z,17.01
2022-09-06T23:16:32.929Z,17.12
2022-09-06T23:18:59.448Z,17.12
2022-09-06T23:21:26.320Z,17.09
2022-09-06T23:23:55.262Z,17.05
2022-09-06T23:26:24.387Z,17.07
2022-09-06T23:28:51.941Z,17.06
2022-09-06T23:31:18.624Z,17.03
2022-09-06T23:33:45.268Z,16.92
2022-09-06T23:36:13.723Z,17.08
2022-09-06T23:38:41.290Z,16.97
2022-09-06T23:41:10.881Z,16.90
2022-09-06T23:43:38.807Z,16.96
2022-09-06T23:46:05.360Z,16.96
2022-09-06T23:48:32.161Z,17.05
2022-09-06T23:50:58.791Z,17.11
2022-09-06T23:53:25.275Z,17.12
2022-09-06T23:55:51.717Z,17.04
2022-09-06T23:58:18.358Z,17.15
